sensor_id;sensor_type;location;lat;lon;timestamp;P1;durP1;ratioP1;P2;durP2;ratioP2
16667;SDS011;8447;52.630;4.734;2022-08-19T00:00:13;4.33;;;2.67;;
16667;SDS011;8447;52.630;4.734;2022-08-19T00:02:40;4.40;;;2.83;;
16667;SDS011;8447;52.630;4.734;2022-08-19T00:05:07;4.27;;;3.30;;
16667;SDS011;8447;52.630;4.734;2022-08-19T00:07:34;3.63;;;2.90;;
16667;SDS011;8447;52.630;4.734;2022-08-19T00:10:02;4.10;;;3.27;;
16667;SDS011;8447;52.630;4.734;2022-08-19T00:12:28;4.27;;;3.03;;
16667;SDS011;8447;52.630;4.734;2022-08-19T00:14:55;4.23;;;3.03;;
16667;SDS011;8447;52.630;4.734;2022-08-19T00:17:21;6.07;;;3.00;;
16667;SDS011;8447;52.630;4.734;2022-08-19T00:19:47;3.00;;;2.53;;
16667;SDS011;8447;52.630;4.734;2022-08-19T00:22:14;4.17;;;3.00;;
16667;SDS011;8447;52.630;4.734;2022-08-19T00:24:42;4.00;;;2.90;;
16667;SDS011;8447;52.630;4.734;2022-08-19T00:27:10;4.73;;;3.30;;
16667;SDS011;8447;52.630;4.734;2022-08-19T00:29:37;10.60;;;3.57;;
16667;SDS011;8447;52.630;4.734;2022-08-19T00:32:03;5.33;;;2.93;;
16667;SDS011;8447;52.630;4.734;2022-08-19T00:34:30;3.63;;;2.90;;
16667;SDS011;8447;52.630;4.734;2022-08-19T00:36:56;5.00;;;2.67;;
16667;SDS011;8447;52.630;4.734;2022-08-19T00:39:23;6.70;;;3.50;;
16667;SDS011;8447;52.630;4.734;2022-08-19T00:41:49;2.80;;;2.60;;
16667;SDS011;8447;52.630;4.734;2022-08-19T00:44:18;6.53;;;3.50;;
16667;SDS011;8447;52.630;4.734;2022-08-19T00:46:46;5.80;;;2.93;;
16667;SDS011;8447;52.630;4.734;2022-08-19T00:49:14;4.73;;;3.27;;
16667;SDS011;8447;52.630;4.734;2022-08-19T00:51:42;5.20;;;3.57;;
16667;SDS011;8447;52.630;4.734;2022-08-19T00:54:10;4.80;;;3.30;;
16667;SDS011;8447;52.630;4.734;2022-08-19T00:56:37;5.07;;;3.50;;
16667;SDS011;8447;52.630;4.734;2022-08-19T00:59:03;6.37;;;3.80;;
16667;SDS011;8447;52.630;4.734;2022-08-19T01:01:35;4.27;;;3.13;;
16667;SDS011;8447;52.630;4.734;2022-08-19T01:04:02;4.57;;;3.70;;
16667;SDS011;8447;52.630;4.734;2022-08-19T01:06:28;5.00;;;3.40;;
16667;SDS011;8447;52.630;4.734;2022-08-19T01:08:56;4.13;;;3.33;;
16667;SDS011;8447;52.630;4.734;2022-08-19T01:11:22;5.33;;;3.70;;
16667;SDS011;8447;52.630;4.734;2022-08-19T01:13:49;3.53;;;3.23;;
16667;SDS011;8447;52.630;4.734;2022-08-19T01:16:17;4.87;;;3.57;;
16667;SDS011;8447;52.630;4.734;2022-08-19T01:18:45;5.77;;;4.30;;
16667;SDS011;8447;52.630;4.734;2022-08-19T01:21:12;4.73;;;4.27;;
16667;SDS011;8447;52.630;4.734;2022-08-19T01:23:44;3.80;;;3.20;;
16667;SDS011;8447;52.630;4.734;2022-08-19T01:26:12;6.00;;;4.50;;
16667;SDS011;8447;52.630;4.734;2022-08-19T01:28:40;7.40;;;3.80;;
16667;SDS011;8447;52.630;4.734;2022-08-19T01:31:07;5.40;;;3.73;;
16667;SDS011;8447;52.630;4.734;2022-08-19T01:33:36;4.87;;;3.37;;
16667;SDS011;8447;52.630;4.734;2022-08-19T01:36:04;9.17;;;4.63;;
16667;SDS011;8447;52.630;4.734;2022-08-19T01:38:30;5.20;;;3.93;;
16667;SDS011;8447;52.630;4.734;2022-08-19T01:40:58;6.27;;;4.33;;
16667;SDS011;8447;52.630;4.734;2022-08-19T01:43:25;4.70;;;3.70;;
16667;SDS011;8447;52.630;4.734;2022-08-19T01:45:51;4.07;;;3.67;;
16667;SDS011;8447;52.630;4.734;2022-08-19T01:48:18;4.47;;;3.70;;
16667;SDS011;8447;52.630;4.734;2022-08-19T01:50:44;4.77;;;4.30;;
16667;SDS011;8447;52.630;4.734;2022-08-19T01:53:11;6.43;;;5.00;;
16667;SDS011;8447;52.630;4.734;2022-08-19T01:55:38;5.20;;;4.40;;
16667;SDS011;8447;52.630;4.734;2022-08-19T01:58:07;5.57;;;4.40;;
16667;SDS011;8447;52.630;4.734;2022-08-19T02:00:34;4.83;;;4.20;;
16667;SDS011;8447;52.630;4.734;2022-08-19T02:03:00;4.53;;;4.13;;
16667;SDS011;8447;52.630;4.734;2022-08-19T02:05:27;5.87;;;4.63;;
16667;SDS011;8447;52.630;4.734;2022-08-19T02:07:54;8.10;;;4.60;;
16667;SDS011;8447;52.630;4.734;2022-08-19T02:10:21;6.07;;;5.10;;
16667;SDS011;8447;52.630;4.734;2022-08-19T02:12:47;5.43;;;4.93;;
16667;SDS011;8447;52.630;4.734;2022-08-19T02:15:15;9.07;;;5.77;;
16667;SDS011;8447;52.630;4.734;2022-08-19T02:17:43;9.80;;;5.67;;
16667;SDS011;8447;52.630;4.734;2022-08-19T02:20:10;7.97;;;5.70;;
16667;SDS011;8447;52.630;4.734;2022-08-19T02:22:38;8.17;;;6.23;;
16667;SDS011;8447;52.630;4.734;2022-08-19T02:25:06;6.27;;;5.67;;
16667;SDS011;8447;52.630;4.734;2022-08-19T02:27:33;7.40;;;6.00;;
16667;SDS011;8447;52.630;4.734;2022-08-19T02:29:59;6.60;;;5.90;;
16667;SDS011;8447;52.630;4.734;2022-08-19T02:32:27;7.17;;;5.23;;
16667;SDS011;8447;52.630;4.734;2022-08-19T02:34:55;6.37;;;5.60;;
16667;SDS011;8447;52.630;4.734;2022-08-19T02:37:21;9.67;;;6.33;;
16667;SDS011;8447;52.630;4.734;2022-08-19T02:40:05;8.10;;;6.73;;
16667;SDS011;8447;52.630;4.734;2022-08-19T02:42:32;8.10;;;5.77;;
16667;SDS011;8447;52.630;4.734;2022-08-19T02:44:58;10.67;;;6.10;;
16667;SDS011;8447;52.630;4.734;2022-08-19T02:47:25;8.67;;;6.10;;
16667;SDS011;8447;52.630;4.734;2022-08-19T02:49:53;8.93;;;6.43;;
16667;SDS011;8447;52.630;4.734;2022-08-19T02:52:19;8.30;;;5.67;;
16667;SDS011;8447;52.630;4.734;2022-08-19T02:54:48;8.03;;;5.90;;
16667;SDS011;8447;52.630;4.734;2022-08-19T02:57:14;6.87;;;5.90;;
16667;SDS011;8447;52.630;4.734;2022-08-19T02:59:41;7.70;;;6.13;;
16667;SDS011;8447;52.630;4.734;2022-08-19T03:02:07;11.20;;;6.63;;
16667;SDS011;8447;52.630;4.734;2022-08-19T03:04:33;8.63;;;6.70;;
16667;SDS011;8447;52.630;4.734;2022-08-19T03:07:01;10.60;;;7.10;;
16667;SDS011;8447;52.630;4.734;2022-08-19T03:09:27;9.03;;;6.60;;
16667;SDS011;8447;52.630;4.734;2022-08-19T03:11:55;8.60;;;6.60;;
16667;SDS011;8447;52.630;4.734;2022-08-19T03:14:21;9.43;;;6.27;;
16667;SDS011;8447;52.630;4.734;2022-08-19T03:16:49;9.20;;;6.57;;
16667;SDS011;8447;52.630;4.734;2022-08-19T03:19:16;8.23;;;6.53;;
16667;SDS011;8447;52.630;4.734;2022-08-19T03:21:43;9.50;;;7.43;;
16667;SDS011;8447;52.630;4.734;2022-08-19T03:24:11;8.77;;;6.70;;
16667;SDS011;8447;52.630;4.734;2022-08-19T03:26:38;7.53;;;6.33;;
16667;SDS011;8447;52.630;4.734;2022-08-19T03:29:04;9.67;;;7.10;;
16667;SDS011;8447;52.630;4.734;2022-08-19T03:31:31;10.30;;;8.00;;
16667;SDS011;8447;52.630;4.734;2022-08-19T03:33:58;10.10;;;6.97;;
16667;SDS011;8447;52.630;4.734;2022-08-19T03:36:25;8.27;;;7.17;;
16667;SDS011;8447;52.630;4.734;2022-08-19T03:38:53;8.77;;;6.53;;
16667;SDS011;8447;52.630;4.734;2022-08-19T03:41:23;10.57;;;7.77;;
16667;SDS011;8447;52.630;4.734;2022-08-19T03:43:50;8.57;;;7.13;;
16667;SDS011;8447;52.630;4.734;2022-08-19T03:46:17;13.77;;;7.83;;
16667;SDS011;8447;52.630;4.734;2022-08-19T03:48:45;11.63;;;7.20;;
16667;SDS011;8447;52.630;4.734;2022-08-19T03:51:15;15.53;;;7.13;;
16667;SDS011;8447;52.630;4.734;2022-08-19T03:53:42;9.37;;;7.13;;
16667;SDS011;8447;52.630;4.734;2022-08-19T03:56:08;10.57;;;7.33;;
16667;SDS011;8447;52.630;4.734;2022-08-19T03:58:36;9.30;;;7.97;;
16667;SDS011;8447;52.630;4.734;2022-08-19T04:01:06;13.17;;;7.53;;
16667;SDS011;8447;52.630;4.734;2022-08-19T04:03:33;9.90;;;7.23;;
16667;SDS011;8447;52.630;4.734;2022-08-19T04:06:08;9.20;;;7.40;;
16667;SDS011;8447;52.630;4.734;2022-08-19T04:08:36;10.77;;;7.97;;
16667;SDS011;8447;52.630;4.734;2022-08-19T04:11:05;11.73;;;7.63;;
16667;SDS011;8447;52.630;4.734;2022-08-19T04:13:32;12.47;;;7.63;;
16667;SDS011;8447;52.630;4.734;2022-08-19T04:16:00;10.67;;;8.07;;
16667;SDS011;8447;52.630;4.734;2022-08-19T04:18:26;9.70;;;7.97;;
16667;SDS011;8447;52.630;4.734;2022-08-19T04:20:54;9.30;;;7.43;;
16667;SDS011;8447;52.630;4.734;2022-08-19T04:23:21;8.53;;;7.63;;
16667;SDS011;8447;52.630;4.734;2022-08-19T04:25:48;10.60;;;8.17;;
16667;SDS011;8447;52.630;4.734;2022-08-19T04:28:14;8.93;;;7.97;;
16667;SDS011;8447;52.630;4.734;2022-08-19T04:30:42;13.67;;;8.60;;
16667;SDS011;8447;52.630;4.734;2022-08-19T04:33:10;12.77;;;10.00;;
16667;SDS011;8447;52.630;4.734;2022-08-19T04:35:38;10.53;;;8.40;;
16667;SDS011;8447;52.630;4.734;2022-08-19T04:38:04;12.63;;;8.87;;
16667;SDS011;8447;52.630;4.734;2022-08-19T04:40:31;14.07;;;10.60;;
16667;SDS011;8447;52.630;4.734;2022-08-19T04:43:26;13.83;;;9.20;;
16667;SDS011;8447;52.630;4.734;2022-08-19T04:45:53;12.37;;;9.17;;
16667;SDS011;8447;52.630;4.734;2022-08-19T04:48:21;14.77;;;9.47;;
16667;SDS011;8447;52.630;4.734;2022-08-19T04:50:51;17.27;;;11.40;;
16667;SDS011;8447;52.630;4.734;2022-08-19T04:53:22;13.53;;;10.43;;
16667;SDS011;8447;52.630;4.734;2022-08-19T04:55:49;15.03;;;10.53;;
16667;SDS011;8447;52.630;4.734;2022-08-19T04:58:16;14.27;;;10.23;;
16667;SDS011;8447;52.630;4.734;2022-08-19T05:00:42;12.23;;;9.30;;
16667;SDS011;8447;52.630;4.734;2022-08-19T05:03:09;14.27;;;10.03;;
16667;SDS011;8447;52.630;4.734;2022-08-19T05:05:39;13.50;;;10.47;;
16667;SDS011;8447;52.630;4.734;2022-08-19T05:08:05;16.60;;;12.73;;
16667;SDS011;8447;52.630;4.734;2022-08-19T05:10:34;14.73;;;10.63;;
16667;SDS011;8447;52.630;4.734;2022-08-19T05:13:00;13.90;;;11.67;;
16667;SDS011;8447;52.630;4.734;2022-08-19T05:15:27;16.47;;;12.07;;
16667;SDS011;8447;52.630;4.734;2022-08-19T05:17:53;15.07;;;10.83;;
16667;SDS011;8447;52.630;4.734;2022-08-19T05:20:38;16.13;;;12.03;;
16667;SDS011;8447;52.630;4.734;2022-08-19T05:23:22;14.17;;;10.40;;
16667;SDS011;8447;52.630;4.734;2022-08-19T05:25:49;15.67;;;11.97;;
16667;SDS011;8447;52.630;4.734;2022-08-19T05:28:16;14.87;;;10.57;;
16667;SDS011;8447;52.630;4.734;2022-08-19T05:30:43;17.30;;;12.77;;
16667;SDS011;8447;52.630;4.734;2022-08-19T05:33:09;18.20;;;12.60;;
16667;SDS011;8447;52.630;4.734;2022-08-19T05:35:38;17.13;;;12.33;;
16667;SDS011;8447;52.630;4.734;2022-08-19T05:38:06;16.70;;;11.73;;
16667;SDS011;8447;52.630;4.734;2022-08-19T05:40:33;16.00;;;12.13;;
16667;SDS011;8447;52.630;4.734;2022-08-19T05:43:00;16.57;;;11.77;;
16667;SDS011;8447;52.630;4.734;2022-08-19T05:45:27;15.53;;;11.53;;
16667;SDS011;8447;52.630;4.734;2022-08-19T05:47:53;20.40;;;11.60;;
16667;SDS011;8447;52.630;4.734;2022-08-19T05:50:20;18.40;;;11.97;;
16667;SDS011;8447;52.630;4.734;2022-08-19T05:52:47;19.57;;;10.50;;
16667;SDS011;8447;52.630;4.734;2022-08-19T05:55:14;16.73;;;11.90;;
16667;SDS011;8447;52.630;4.734;2022-08-19T05:57:40;13.60;;;10.60;;
16667;SDS011;8447;52.630;4.734;2022-08-19T06:00:07;15.63;;;11.10;;
16667;SDS011;8447;52.630;4.734;2022-08-19T06:02:35;15.70;;;11.30;;
16667;SDS011;8447;52.630;4.734;2022-08-19T06:05:03;16.43;;;10.37;;
16667;SDS011;8447;52.630;4.734;2022-08-19T06:07:31;10.47;;;7.80;;
16667;SDS011;8447;52.630;4.734;2022-08-19T06:09:59;15.70;;;10.90;;
16667;SDS011;8447;52.630;4.734;2022-08-19T06:12:25;16.47;;;10.50;;
16667;SDS011;8447;52.630;4.734;2022-08-19T06:14:53;14.47;;;10.10;;
16667;SDS011;8447;52.630;4.734;2022-08-19T06:17:20;13.93;;;10.17;;
16667;SDS011;8447;52.630;4.734;2022-08-19T06:19:50;13.47;;;10.03;;
16667;SDS011;8447;52.630;4.734;2022-08-19T06:22:16;16.07;;;10.10;;
16667;SDS011;8447;52.630;4.734;2022-08-19T06:24:42;17.17;;;11.83;;
16667;SDS011;8447;52.630;4.734;2022-08-19T06:27:10;19.67;;;11.63;;
16667;SDS011;8447;52.630;4.734;2022-08-19T06:29:36;14.30;;;11.00;;
16667;SDS011;8447;52.630;4.734;2022-08-19T06:32:03;15.43;;;11.23;;
16667;SDS011;8447;52.630;4.734;2022-08-19T06:34:31;15.53;;;11.20;;
16667;SDS011;8447;52.630;4.734;2022-08-19T06:36:58;15.60;;;12.20;;
16667;SDS011;8447;52.630;4.734;2022-08-19T06:39:27;16.33;;;10.90;;
16667;SDS011;8447;52.630;4.734;2022-08-19T06:41:54;14.43;;;10.27;;
16667;SDS011;8447;52.630;4.734;2022-08-19T06:44:23;13.37;;;10.53;;
16667;SDS011;8447;52.630;4.734;2022-08-19T06:46:50;18.53;;;9.43;;
16667;SDS011;8447;52.630;4.734;2022-08-19T06:49:17;18.13;;;9.93;;
16667;SDS011;8447;52.630;4.734;2022-08-19T06:51:43;15.90;;;10.77;;
16667;SDS011;8447;52.630;4.734;2022-08-19T06:54:11;15.43;;;10.80;;
16667;SDS011;8447;52.630;4.734;2022-08-19T06:56:37;15.80;;;10.60;;
16667;SDS011;8447;52.630;4.734;2022-08-19T06:59:05;13.33;;;8.40;;
16667;SDS011;8447;52.630;4.734;2022-08-19T07:01:35;12.47;;;8.17;;
16667;SDS011;8447;52.630;4.734;2022-08-19T07:04:02;11.57;;;7.57;;
16667;SDS011;8447;52.630;4.734;2022-08-19T07:06:29;11.67;;;5.30;;
16667;SDS011;8447;52.630;4.734;2022-08-19T07:08:56;9.93;;;6.17;;
16667;SDS011;8447;52.630;4.734;2022-08-19T07:11:23;10.27;;;5.67;;
16667;SDS011;8447;52.630;4.734;2022-08-19T07:13:50;14.03;;;4.43;;
16667;SDS011;8447;52.630;4.734;2022-08-19T07:16:18;13.93;;;5.10;;
16667;SDS011;8447;52.630;4.734;2022-08-19T07:18:46;8.73;;;4.83;;
16667;SDS011;8447;52.630;4.734;2022-08-19T07:21:14;11.60;;;4.03;;
16667;SDS011;8447;52.630;4.734;2022-08-19T07:23:41;11.07;;;3.80;;
16667;SDS011;8447;52.630;4.734;2022-08-19T07:26:08;9.40;;;4.03;;
16667;SDS011;8447;52.630;4.734;2022-08-19T07:28:35;4.97;;;3.23;;
16667;SDS011;8447;52.630;4.734;2022-08-19T07:31:04;8.73;;;3.30;;
16667;SDS011;8447;52.630;4.734;2022-08-19T07:33:30;7.70;;;3.60;;
16667;SDS011;8447;52.630;4.734;2022-08-19T07:35:58;9.40;;;4.17;;
16667;SDS011;8447;52.630;4.734;2022-08-19T07:38:25;9.23;;;4.00;;
16667;SDS011;8447;52.630;4.734;2022-08-19T07:40:51;9.83;;;4.10;;
16667;SDS011;8447;52.630;4.734;2022-08-19T07:43:18;11.37;;;4.00;;
16667;SDS011;8447;52.630;4.734;2022-08-19T07:45:48;7.40;;;3.60;;
16667;SDS011;8447;52.630;4.734;2022-08-19T07:48:14;6.73;;;3.43;;
16667;SDS011;8447;52.630;4.734;2022-08-19T07:50:40;7.03;;;3.40;;
16667;SDS011;8447;52.630;4.734;2022-08-19T07:53:08;5.73;;;3.13;;
16667;SDS011;8447;52.630;4.734;2022-08-19T07:55:35;7.00;;;3.50;;
16667;SDS011;8447;52.630;4.734;2022-08-19T07:58:01;10.10;;;3.73;;
16667;SDS011;8447;52.630;4.734;2022-08-19T08:00:29;6.20;;;3.17;;
16667;SDS011;8447;52.630;4.734;2022-08-19T08:02:55;8.00;;;3.90;;
16667;SDS011;8447;52.630;4.734;2022-08-19T08:05:21;7.73;;;3.43;;
16667;SDS011;8447;52.630;4.734;2022-08-19T08:08:05;7.07;;;3.10;;
16667;SDS011;8447;52.630;4.734;2022-08-19T08:10:51;6.30;;;3.20;;
16667;SDS011;8447;52.630;4.734;2022-08-19T08:13:17;7.70;;;3.50;;
16667;SDS011;8447;52.630;4.734;2022-08-19T08:15:43;5.77;;;2.90;;
16667;SDS011;8447;52.630;4.734;2022-08-19T08:18:10;4.57;;;2.83;;
16667;SDS011;8447;52.630;4.734;2022-08-19T08:20:37;6.50;;;2.37;;
16667;SDS011;8447;52.630;4.734;2022-08-19T08:23:03;7.13;;;3.50;;
16667;SDS011;8447;52.630;4.734;2022-08-19T08:25:47;8.73;;;3.53;;
16667;SDS011;8447;52.630;4.734;2022-08-19T08:28:15;9.13;;;3.15;;
16667;SDS011;8447;52.630;4.734;2022-08-19T08:30:41;7.28;;;3.33;;
16667;SDS011;8447;52.630;4.734;2022-08-19T08:33:08;10.43;;;3.45;;
16667;SDS011;8447;52.630;4.734;2022-08-19T08:35:35;5.05;;;2.90;;
16667;SDS011;8447;52.630;4.734;2022-08-19T08:38:02;6.47;;;2.78;;
16667;SDS011;8447;52.630;4.734;2022-08-19T08:40:29;5.63;;;3.28;;
16667;SDS011;8447;52.630;4.734;2022-08-19T08:42:57;6.53;;;3.50;;
16667;SDS011;8447;52.630;4.734;2022-08-19T08:45:28;3.70;;;3.17;;
16667;SDS011;8447;52.630;4.734;2022-08-19T08:47:56;4.97;;;2.80;;
16667;SDS011;8447;52.630;4.734;2022-08-19T08:50:25;7.15;;;4.82;;
16667;SDS011;8447;52.630;4.734;2022-08-19T08:52:54;6.00;;;3.00;;
16667;SDS011;8447;52.630;4.734;2022-08-19T08:55:24;6.72;;;3.03;;
16667;SDS011;8447;52.630;4.734;2022-08-19T08:57:51;4.22;;;2.70;;
16667;SDS011;8447;52.630;4.734;2022-08-19T09:00:20;10.60;;;2.63;;
16667;SDS011;8447;52.630;4.734;2022-08-19T09:02:48;5.38;;;2.88;;
16667;SDS011;8447;52.630;4.734;2022-08-19T09:05:15;7.45;;;3.47;;
16667;SDS011;8447;52.630;4.734;2022-08-19T09:07:43;7.97;;;2.90;;
16667;SDS011;8447;52.630;4.734;2022-08-19T09:10:15;4.32;;;2.50;;
16667;SDS011;8447;52.630;4.734;2022-08-19T09:12:46;6.70;;;2.65;;
16667;SDS011;8447;52.630;4.734;2022-08-19T09:15:15;4.75;;;3.15;;
16667;SDS011;8447;52.630;4.734;2022-08-19T09:17:44;8.18;;;3.20;;
16667;SDS011;8447;52.630;4.734;2022-08-19T09:20:15;12.10;;;3.30;;
16667;SDS011;8447;52.630;4.734;2022-08-19T09:22:43;6.28;;;3.00;;
16667;SDS011;8447;52.630;4.734;2022-08-19T09:25:11;8.48;;;2.90;;
16667;SDS011;8447;52.630;4.734;2022-08-19T09:27:38;10.68;;;3.40;;
16667;SDS011;8447;52.630;4.734;2022-08-19T09:30:06;8.20;;;3.05;;
16667;SDS011;8447;52.630;4.734;2022-08-19T09:32:33;5.20;;;3.42;;
16667;SDS011;8447;52.630;4.734;2022-08-19T09:34:59;6.50;;;2.80;;
16667;SDS011;8447;52.630;4.734;2022-08-19T09:37:27;4.43;;;2.40;;
16667;SDS011;8447;52.630;4.734;2022-08-19T09:39:54;6.28;;;2.72;;
16667;SDS011;8447;52.630;4.734;2022-08-19T09:42:20;6.40;;;3.25;;
16667;SDS011;8447;52.630;4.734;2022-08-19T09:44:47;4.95;;;2.58;;
16667;SDS011;8447;52.630;4.734;2022-08-19T09:47:13;6.53;;;2.35;;
16667;SDS011;8447;52.630;4.734;2022-08-19T09:49:40;5.47;;;2.30;;
16667;SDS011;8447;52.630;4.734;2022-08-19T09:52:08;7.75;;;3.08;;
16667;SDS011;8447;52.630;4.734;2022-08-19T09:54:36;6.55;;;2.22;;
16667;SDS011;8447;52.630;4.734;2022-08-19T09:57:03;4.60;;;2.50;;
16667;SDS011;8447;52.630;4.734;2022-08-19T09:59:30;5.88;;;2.15;;
16667;SDS011;8447;52.630;4.734;2022-08-19T10:01:57;4.57;;;2.60;;
16667;SDS011;8447;52.630;4.734;2022-08-19T10:04:23;6.93;;;2.88;;
16667;SDS011;8447;52.630;4.734;2022-08-19T10:07:09;4.32;;;2.20;;
16667;SDS011;8447;52.630;4.734;2022-08-19T10:09:37;5.45;;;2.70;;
16667;SDS011;8447;52.630;4.734;2022-08-19T10:12:06;4.70;;;2.50;;
16667;SDS011;8447;52.630;4.734;2022-08-19T10:14:32;4.22;;;2.30;;
16667;SDS011;8447;52.630;4.734;2022-08-19T10:16:59;3.50;;;2.75;;
16667;SDS011;8447;52.630;4.734;2022-08-19T10:19:27;4.88;;;2.38;;
16667;SDS011;8447;52.630;4.734;2022-08-19T10:21:57;6.93;;;3.22;;
16667;SDS011;8447;52.630;4.734;2022-08-19T10:24:23;3.53;;;2.70;;
16667;SDS011;8447;52.630;4.734;2022-08-19T10:26:52;5.03;;;2.40;;
16667;SDS011;8447;52.630;4.734;2022-08-19T10:29:18;6.03;;;3.28;;
16667;SDS011;8447;52.630;4.734;2022-08-19T10:31:44;6.95;;;2.92;;
16667;SDS011;8447;52.630;4.734;2022-08-19T10:34:12;5.50;;;2.80;;
16667;SDS011;8447;52.630;4.734;2022-08-19T10:36:38;5.20;;;2.88;;
16667;SDS011;8447;52.630;4.734;2022-08-19T10:39:06;4.32;;;3.10;;
16667;SDS011;8447;52.630;4.734;2022-08-19T10:41:33;8.32;;;2.70;;
16667;SDS011;8447;52.630;4.734;2022-08-19T10:44:03;7.57;;;2.72;;
16667;SDS011;8447;52.630;4.734;2022-08-19T10:46:30;4.35;;;2.33;;
16667;SDS011;8447;52.630;4.734;2022-08-19T10:48:57;4.85;;;2.45;;
16667;SDS011;8447;52.630;4.734;2022-08-19T10:51:24;5.70;;;2.60;;
16667;SDS011;8447;52.630;4.734;2022-08-19T10:54:07;4.05;;;2.67;;
16667;SDS011;8447;52.630;4.734;2022-08-19T10:56:34;3.88;;;2.78;;
16667;SDS011;8447;52.630;4.734;2022-08-19T10:59:20;4.85;;;2.55;;
16667;SDS011;8447;52.630;4.734;2022-08-19T11:01:47;6.45;;;2.85;;
16667;SDS011;8447;52.630;4.734;2022-08-19T11:04:14;4.75;;;2.40;;
16667;SDS011;8447;52.630;4.734;2022-08-19T11:06:43;2.75;;;2.25;;
16667;SDS011;8447;52.630;4.734;2022-08-19T11:09:10;3.33;;;2.38;;
16667;SDS011;8447;52.630;4.734;2022-08-19T11:11:36;3.13;;;2.20;;
16667;SDS011;8447;52.630;4.734;2022-08-19T11:14:05;4.60;;;2.28;;
16667;SDS011;8447;52.630;4.734;2022-08-19T11:16:33;2.78;;;2.05;;
16667;SDS011;8447;52.630;4.734;2022-08-19T11:18:59;3.30;;;2.47;;
16667;SDS011;8447;52.630;4.734;2022-08-19T11:21:27;3.08;;;2.20;;
16667;SDS011;8447;52.630;4.734;2022-08-19T11:23:56;5.90;;;2.58;;
16667;SDS011;8447;52.630;4.734;2022-08-19T11:26:24;4.85;;;2.30;;
16667;SDS011;8447;52.630;4.734;2022-08-19T11:28:50;5.55;;;2.25;;
16667;SDS011;8447;52.630;4.734;2022-08-19T11:31:20;4.38;;;2.30;;
16667;SDS011;8447;52.630;4.734;2022-08-19T11:33:48;5.40;;;2.73;;
16667;SDS011;8447;52.630;4.734;2022-08-19T11:36:15;3.70;;;2.60;;
16667;SDS011;8447;52.630;4.734;2022-08-19T11:38:42;5.67;;;2.43;;
16667;SDS011;8447;52.630;4.734;2022-08-19T11:41:09;3.33;;;2.27;;
16667;SDS011;8447;52.630;4.734;2022-08-19T11:43:36;4.40;;;2.63;;
16667;SDS011;8447;52.630;4.734;2022-08-19T11:46:05;5.97;;;2.50;;
16667;SDS011;8447;52.630;4.734;2022-08-19T11:48:33;3.13;;;2.30;;
16667;SDS011;8447;52.630;4.734;2022-08-19T11:51:02;4.03;;;1.90;;
16667;SDS011;8447;52.630;4.734;2022-08-19T11:53:31;3.42;;;2.05;;
16667;SDS011;8447;52.630;4.734;2022-08-19T11:55:58;3.50;;;1.80;;
16667;SDS011;8447;52.630;4.734;2022-08-19T11:58:24;3.67;;;2.13;;
16667;SDS011;8447;52.630;4.734;2022-08-19T12:00:50;3.38;;;1.55;;
16667;SDS011;8447;52.630;4.734;2022-08-19T12:03:17;4.18;;;2.10;;
16667;SDS011;8447;52.630;4.734;2022-08-19T12:05:44;3.70;;;2.13;;
16667;SDS011;8447;52.630;4.734;2022-08-19T12:08:12;2.65;;;1.77;;
16667;SDS011;8447;52.630;4.734;2022-08-19T12:10:39;5.88;;;2.65;;
16667;SDS011;8447;52.630;4.734;2022-08-19T12:13:06;3.47;;;1.70;;
16667;SDS011;8447;52.630;4.734;2022-08-19T12:15:34;2.15;;;1.60;;
16667;SDS011;8447;52.630;4.734;2022-08-19T12:18:01;5.18;;;1.92;;
16667;SDS011;8447;52.630;4.734;2022-08-19T12:20:27;3.78;;;2.30;;
16667;SDS011;8447;52.630;4.734;2022-08-19T12:22:54;4.80;;;1.90;;
16667;SDS011;8447;52.630;4.734;2022-08-19T12:25:21;8.77;;;2.00;;
16667;SDS011;8447;52.630;4.734;2022-08-19T12:27:48;1.95;;;1.70;;
16667;SDS011;8447;52.630;4.734;2022-08-19T12:30:14;2.90;;;2.25;;
16667;SDS011;8447;52.630;4.734;2022-08-19T12:32:41;6.18;;;2.20;;
16667;SDS011;8447;52.630;4.734;2022-08-19T12:35:07;4.15;;;1.95;;
16667;SDS011;8447;52.630;4.734;2022-08-19T12:37:36;3.22;;;1.98;;
16667;SDS011;8447;52.630;4.734;2022-08-19T12:40:03;5.25;;;1.70;;
16667;SDS011;8447;52.630;4.734;2022-08-19T12:42:31;2.97;;;1.90;;
16667;SDS011;8447;52.630;4.734;2022-08-19T12:44:57;4.10;;;2.28;;
16667;SDS011;8447;52.630;4.734;2022-08-19T12:47:23;4.05;;;1.48;;
16667;SDS011;8447;52.630;4.734;2022-08-19T12:49:51;2.35;;;1.50;;
16667;SDS011;8447;52.630;4.734;2022-08-19T12:52:17;3.08;;;1.63;;
16667;SDS011;8447;52.630;4.734;2022-08-19T12:54:46;4.45;;;1.92;;
16667;SDS011;8447;52.630;4.734;2022-08-19T12:57:12;3.17;;;1.90;;
16667;SDS011;8447;52.630;4.734;2022-08-19T12:59:40;5.43;;;2.05;;
16667;SDS011;8447;52.630;4.734;2022-08-19T13:02:06;6.05;;;1.85;;
16667;SDS011;8447;52.630;4.734;2022-08-19T13:04:33;3.67;;;1.70;;
16667;SDS011;8447;52.630;4.734;2022-08-19T13:07:01;3.58;;;2.00;;
16667;SDS011;8447;52.630;4.734;2022-08-19T13:09:27;3.10;;;2.25;;
16667;SDS011;8447;52.630;4.734;2022-08-19T13:11:54;3.15;;;1.60;;
16667;SDS011;8447;52.630;4.734;2022-08-19T13:14:21;2.78;;;1.98;;
16667;SDS011;8447;52.630;4.734;2022-08-19T13:16:49;4.40;;;1.70;;
16667;SDS011;8447;52.630;4.734;2022-08-19T13:19:15;3.30;;;1.45;;
16667;SDS011;8447;52.630;4.734;2022-08-19T13:21:45;1.63;;;1.17;;
16667;SDS011;8447;52.630;4.734;2022-08-19T13:24:15;2.72;;;1.33;;
16667;SDS011;8447;52.630;4.734;2022-08-19T13:26:41;2.50;;;1.52;;
16667;SDS011;8447;52.630;4.734;2022-08-19T13:29:07;2.53;;;1.48;;
16667;SDS011;8447;52.630;4.734;2022-08-19T13:31:49;4.95;;;1.67;;
16667;SDS011;8447;52.630;4.734;2022-08-19T13:34:33;2.17;;;1.75;;
16667;SDS011;8447;52.630;4.734;2022-08-19T13:37:01;2.30;;;1.40;;
16667;SDS011;8447;52.630;4.734;2022-08-19T13:39:29;4.97;;;1.35;;
16667;SDS011;8447;52.630;4.734;2022-08-19T13:41:55;3.10;;;1.67;;
16667;SDS011;8447;52.630;4.734;2022-08-19T13:44:23;4.38;;;1.50;;
16667;SDS011;8447;52.630;4.734;2022-08-19T13:46:51;2.92;;;1.40;;
16667;SDS011;8447;52.630;4.734;2022-08-19T13:49:18;1.77;;;1.40;;
16667;SDS011;8447;52.630;4.734;2022-08-19T13:51:45;1.53;;;1.20;;
16667;SDS011;8447;52.630;4.734;2022-08-19T13:54:11;2.23;;;1.27;;
16667;SDS011;8447;52.630;4.734;2022-08-19T13:56:39;2.43;;;1.50;;
16667;SDS011;8447;52.630;4.734;2022-08-19T13:59:06;3.80;;;1.03;;
16667;SDS011;8447;52.630;4.734;2022-08-19T14:01:32;4.13;;;1.20;;
16667;SDS011;8447;52.630;4.734;2022-08-19T14:04:01;2.10;;;0.93;;
16667;SDS011;8447;52.630;4.734;2022-08-19T14:06:27;1.80;;;1.17;;
16667;SDS011;8447;52.630;4.734;2022-08-19T14:08:53;1.77;;;1.07;;
16667;SDS011;8447;52.630;4.734;2022-08-19T14:11:20;2.23;;;0.90;;
16667;SDS011;8447;52.630;4.734;2022-08-19T14:13:48;3.80;;;1.07;;
16667;SDS011;8447;52.630;4.734;2022-08-19T14:16:14;2.10;;;1.00;;
16667;SDS011;8447;52.630;4.734;2022-08-19T14:18:43;2.00;;;1.33;;
16667;SDS011;8447;52.630;4.734;2022-08-19T14:21:15;3.80;;;1.60;;
16667;SDS011;8447;52.630;4.734;2022-08-19T14:23:42;2.10;;;1.03;;
16667;SDS011;8447;52.630;4.734;2022-08-19T14:26:10;3.53;;;1.40;;
16667;SDS011;8447;52.630;4.734;2022-08-19T14:28:37;3.10;;;1.37;;
16667;SDS011;8447;52.630;4.734;2022-08-19T14:31:06;3.87;;;1.17;;
16667;SDS011;8447;52.630;4.734;2022-08-19T14:33:32;4.00;;;1.43;;
16667;SDS011;8447;52.630;4.734;2022-08-19T14:35:59;3.93;;;1.13;;
16667;SDS011;8447;52.630;4.734;2022-08-19T14:38:27;0.97;;;0.80;;
16667;SDS011;8447;52.630;4.734;2022-08-19T14:41:04;5.40;;;1.37;;
16667;SDS011;8447;52.630;4.734;2022-08-19T14:43:31;1.73;;;1.40;;
16667;SDS011;8447;52.630;4.734;2022-08-19T14:45:57;1.53;;;1.23;;
16667;SDS011;8447;52.630;4.734;2022-08-19T14:48:23;2.60;;;1.60;;
16667;SDS011;8447;52.630;4.734;2022-08-19T14:50:49;4.00;;;1.60;;
16667;SDS011;8447;52.630;4.734;2022-08-19T14:53:17;4.47;;;1.50;;
16667;SDS011;8447;52.630;4.734;2022-08-19T14:55:45;2.43;;;1.20;;
16667;SDS011;8447;52.630;4.734;2022-08-19T14:58:12;2.87;;;1.30;;